createdAt,value
2019-05-19T00:00:06.327Z,10.92
2019-05-19T00:01:06.495Z,10.98
2019-05-19T00:02:06.640Z,11.05
2019-05-19T00:03:06.844Z,10.98
2019-05-19T00:04:07.010Z,10.95
2019-05-19T00:05:07.191Z,10.98
2019-05-19T00:06:07.331Z,11.04
2019-05-19T00:07:07.500Z,11.12
2019-05-19T00:08:07.686Z,11.08
2019-05-19T00:09:07.886Z,11.05
2019-05-19T00:10:08.080Z,11.05
2019-05-19T00:11:08.262Z,11.05
2019-05-19T00:12:08.471Z,11.02
2019-05-19T00:13:08.666Z,11.01
2019-05-19T00:14:08.877Z,10.95
2019-05-19T00:15:09.065Z,11.05
2019-05-19T00:16:09.246Z,10.94
2019-05-19T00:17:09.401Z,10.90
2019-05-19T00:18:10.595Z,10.94
2019-05-19T00:19:09.738Z,10.87
2019-05-19T00:20:09.948Z,10.92
2019-05-19T00:21:10.159Z,10.86
2019-05-19T00:22:10.381Z,10.86
2019-05-19T00:23:10.619Z,10.97
2019-05-19T00:24:10.838Z,11.00
2019-05-19T00:25:11.045Z,10.92
2019-05-19T00:26:11.239Z,10.90
2019-05-19T00:27:11.436Z,10.98
2019-05-19T00:28:11.659Z,10.92
2019-05-19T00:29:11.874Z,10.97
2019-05-19T00:30:12.112Z,11.04
2019-05-19T00:31:12.310Z,10.97
2019-05-19T00:32:12.508Z,10.87
2019-05-19T00:33:12.699Z,10.97
2019-05-19T00:34:12.920Z,10.92
2019-05-19T00:35:13.100Z,10.95
2019-05-19T00:36:13.288Z,10.92
2019-05-19T00:37:13.472Z,10.92
2019-05-19T00:38:13.700Z,10.76
2019-05-19T00:39:13.939Z,10.83
2019-05-19T00:40:14.083Z,10.83
2019-05-19T00:41:14.283Z,10.82
2019-05-19T00:42:14.456Z,10.84
2019-05-19T00:43:14.631Z,10.83
2019-05-19T00:44:14.837Z,10.80
2019-05-19T00:45:14.984Z,10.79
2019-05-19T00:46:15.143Z,10.75
2019-05-19T00:47:15.290Z,10.82
2019-05-19T00:48:15.417Z,10.94
2019-05-19T00:49:15.580Z,10.83
2019-05-19T00:50:15.741Z,10.83
2019-05-19T00:51:15.885Z,10.86
2019-05-19T00:52:16.013Z,10.80
2019-05-19T00:53:16.164Z,10.87
2019-05-19T00:54:16.373Z,10.94
2019-05-19T00:55:16.530Z,10.95
2019-05-19T00:56:16.695Z,10.92
2019-05-19T00:57:16.849Z,10.90
2019-05-19T00:58:17.034Z,10.83
2019-05-19T00:59:17.186Z,10.75
2019-05-19T01:00:17.344Z,10.77
2019-05-19T01:01:17.489Z,10.80
2019-05-19T01:02:17.684Z,10.89
2019-05-19T01:03:17.848Z,10.87
2019-05-19T01:04:18.028Z,10.92
2019-05-19T01:05:20.693Z,10.95
2019-05-19T01:06:18.406Z,10.90
2019-05-19T01:07:18.591Z,10.95
2019-05-19T01:08:18.750Z,11.01
2019-05-19T01:09:18.913Z,10.94
2019-05-19T01:10:19.066Z,10.89
2019-05-19T01:11:19.244Z,10.97
2019-05-19T01:12:19.418Z,10.94
2019-05-19T01:13:19.578Z,10.89
2019-05-19T01:14:19.736Z,10.98
2019-05-19T01:15:19.902Z,10.95
2019-05-19T01:16:20.032Z,10.94
2019-05-19T01:17:20.229Z,10.97
2019-05-19T01:18:20.367Z,10.97
2019-05-19T01:19:20.538Z,11.07
2019-05-19T01:20:20.710Z,11.02
2019-05-19T01:21:20.834Z,11.10
2019-05-19T01:22:20.994Z,11.05
2019-05-19T01:23:21.143Z,11.08
2019-05-19T01:24:21.281Z,10.98
2019-05-19T01:25:21.461Z,10.98
2019-05-19T01:26:21.642Z,10.98
2019-05-19T01:27:21.781Z,10.87
2019-05-19T01:28:21.932Z,10.90
2019-05-19T01:29:22.089Z,10.86
2019-05-19T01:30:22.240Z,10.89
2019-05-19T01:31:22.407Z,10.92
2019-05-19T01:32:22.611Z,10.89
2019-05-19T01:33:22.835Z,10.82
2019-05-19T01:34:22.998Z,10.84
2019-05-19T01:35:23.169Z,10.76
2019-05-19T01:36:23.338Z,10.75
2019-05-19T01:37:23.532Z,10.72
2019-05-19T01:38:23.740Z,10.67
2019-05-19T01:39:23.931Z,10.67
2019-05-19T01:40:24.115Z,10.61
2019-05-19T01:41:24.261Z,10.58
2019-05-19T01:42:24.474Z,10.55
2019-05-19T01:43:24.652Z,10.58
2019-05-19T01:44:24.808Z,10.55
2019-05-19T01:45:24.949Z,10.45
2019-05-19T01:46:25.119Z,10.43
2019-05-19T01:47:25.342Z,10.36
2019-05-19T01:48:27.978Z,10.27
2019-05-19T01:49:25.657Z,10.42
2019-05-19T01:50:25.819Z,10.51
2019-05-19T01:51:25.969Z,10.43
2019-05-19T01:52:26.192Z,10.39
2019-05-19T01:53:26.360Z,10.28
2019-05-19T01:54:26.552Z,10.25
2019-05-19T01:55:26.700Z,10.09
2019-05-19T01:56:26.845Z,10.06
2019-05-19T01:57:27.011Z,9.92
2019-05-19T01:58:27.191Z,9.95
2019-05-19T01:59:27.350Z,9.88
2019-05-19T02:00:27.522Z,9.91
2019-05-19T02:01:27.689Z,9.85
2019-05-19T02:02:27.838Z,9.88
2019-05-19T02:03:28.005Z,9.77
2019-05-19T02:04:28.166Z,9.82
2019-05-19T02:05:28.328Z,9.87
2019-05-19T02:06:28.458Z,9.85
2019-05-19T02:07:28.625Z,9.91
2019-05-19T02:08:28.823Z,9.90
2019-05-19T02:09:28.968Z,9.88
2019-05-19T02:10:29.110Z,9.92
2019-05-19T02:11:29.261Z,9.94
2019-05-19T02:12:29.425Z,9.97
2019-05-19T02:13:29.586Z,9.95
2019-05-19T02:14:29.744Z,9.95
2019-05-19T02:15:29.887Z,9.92
2019-05-19T02:16:30.061Z,9.88
2019-05-19T02:17:30.198Z,9.92
2019-05-19T02:18:30.361Z,9.94
2019-05-19T02:19:30.509Z,9.90
2019-05-19T02:20:33.730Z,9.99
2019-05-19T02:21:31.789Z,9.99
2019-05-19T02:22:30.919Z,9.91
2019-05-19T02:23:31.099Z,9.91
2019-05-19T02:24:31.282Z,9.92
2019-05-19T02:25:31.418Z,9.91
2019-05-19T02:26:31.542Z,9.94
2019-05-19T02:27:31.706Z,9.99
2019-05-19T02:28:31.848Z,9.97
2019-05-19T02:29:32.017Z,9.90
2019-05-19T02:30:32.203Z,9.94
2019-05-19T02:31:32.369Z,9.91
2019-05-19T02:32:32.507Z,9.81
2019-05-19T02:33:35.713Z,9.73
2019-05-19T02:34:33.865Z,9.80
2019-05-19T02:35:32.969Z,9.80
2019-05-19T02:36:33.102Z,9.85
2019-05-19T02:37:33.286Z,9.76
2019-05-19T02:38:33.430Z,9.76
2019-05-19T02:39:33.596Z,9.90
2019-05-19T02:40:33.763Z,9.85
2019-05-19T02:41:33.918Z,9.74
2019-05-19T02:42:34.114Z,9.73
2019-05-19T02:43:34.283Z,9.77
2019-05-19T02:44:34.454Z,9.82
2019-05-19T02:45:34.600Z,9.77
2019-05-19T02:46:34.793Z,9.87
2019-05-19T02:47:34.943Z,9.74
2019-05-19T02:48:35.167Z,9.73
2019-05-19T02:49:35.311Z,9.62
2019-05-19T02:50:50.945Z,9.80
2019-05-19T02:51:37.736Z,9.64
2019-05-19T02:52:35.949Z,9.56
2019-05-19T02:53:36.103Z,9.55
2019-05-19T02:54:36.262Z,9.47
2019-05-19T02:55:36.457Z,9.67
2019-05-19T02:56:36.644Z,9.64
2019-05-19T02:57:36.825Z,9.76
2019-05-19T02:58:36.985Z,9.63
2019-05-19T02:59:37.171Z,9.73
2019-05-19T03:00:37.365Z,9.55
2019-05-19T03:01:37.573Z,9.59
2019-05-19T03:02:37.732Z,9.67
2019-05-19T03:03:37.901Z,9.63
2019-05-19T03:04:38.079Z,9.69
2019-05-19T03:05:38.278Z,9.77
2019-05-19T03:06:38.467Z,9.76
2019-05-19T03:07:38.633Z,9.74
2019-05-19T03:08:38.839Z,9.72
2019-05-19T03:09:39.006Z,9.76
2019-05-19T03:10:39.174Z,9.64
2019-05-19T03:11:39.371Z,9.72
2019-05-19T03:12:39.528Z,9.80
2019-05-19T03:13:39.689Z,9.70
2019-05-19T03:14:39.899Z,9.74
2019-05-19T03:15:40.073Z,9.74
2019-05-19T03:16:40.280Z,9.66
2019-05-19T03:17:40.460Z,9.64
2019-05-19T03:18:40.613Z,9.80
2019-05-19T03:19:40.788Z,9.54
2019-05-19T03:20:40.933Z,9.56
2019-05-19T03:21:41.102Z,9.67
2019-05-19T03:22:41.293Z,9.63
2019-05-19T03:23:41.482Z,9.69
2019-05-19T03:24:41.613Z,9.69
2019-05-19T03:25:44.263Z,9.64
2019-05-19T03:26:43.017Z,9.52
2019-05-19T03:27:42.166Z,9.54
2019-05-19T03:28:42.352Z,9.52
2019-05-19T03:29:42.502Z,9.54
2019-05-19T03:30:42.676Z,9.48
2019-05-19T03:31:42.844Z,9.36
2019-05-19T03:32:43.040Z,9.42
2019-05-19T03:33:43.223Z,9.36
2019-05-19T03:34:43.433Z,9.36
2019-05-19T03:35:43.591Z,9.42
2019-05-19T03:36:43.763Z,9.47
2019-05-19T03:37:43.963Z,9.54
2019-05-19T03:38:44.131Z,9.58
2019-05-19T03:39:44.298Z,9.58
2019-05-19T03:40:44.486Z,9.56
2019-05-19T03:41:44.643Z,9.48
2019-05-19T03:42:44.817Z,9.55
2019-05-19T03:43:44.986Z,9.55
2019-05-19T03:44:45.182Z,9.47
2019-05-19T03:45:45.342Z,9.37
2019-05-19T03:46:45.513Z,9.39
2019-05-19T03:47:45.686Z,9.45
2019-05-19T03:48:45.868Z,9.42
2019-05-19T03:49:46.030Z,9.49
2019-05-19T03:50:46.203Z,9.51
2019-05-19T03:51:46.383Z,9.47
2019-05-19T03:52:46.572Z,9.40
2019-05-19T03:53:46.795Z,9.45
2019-05-19T03:54:46.977Z,9.37
2019-05-19T03:55:47.148Z,9.42
2019-05-19T03:56:47.299Z,9.37
2019-05-19T03:57:48.468Z,9.39
2019-05-19T03:58:47.621Z,9.40
2019-05-19T03:59:47.797Z,9.48
2019-05-19T04:00:47.960Z,9.33
2019-05-19T04:01:48.122Z,9.40
2019-05-19T04:02:48.267Z,9.44
2019-05-19T04:03:48.466Z,9.37
2019-05-19T04:04:48.642Z,9.44
2019-05-19T04:05:48.823Z,9.49
2019-05-19T04:06:49.009Z,9.34
2019-05-19T04:07:49.191Z,9.49
2019-05-19T04:08:49.403Z,9.49
2019-05-19T04:09:49.586Z,9.55
2019-05-19T04:10:49.734Z,9.39
2019-05-19T04:11:49.935Z,9.33
2019-05-19T04:12:50.127Z,9.37
2019-05-19T04:13:50.301Z,9.49
2019-05-19T04:14:50.514Z,9.37
2019-05-19T04:15:50.713Z,9.31
2019-05-19T04:16:50.889Z,9.36
2019-05-19T04:17:51.049Z,9.39
2019-05-19T04:18:51.215Z,9.42
2019-05-19T04:19:51.389Z,9.40
2019-05-19T04:20:51.531Z,9.48
2019-05-19T04:21:51.731Z,9.49
2019-05-19T04:22:51.916Z,9.54
2019-05-19T04:23:52.086Z,9.56
2019-05-19T04:24:52.289Z,9.48
2019-05-19T04:25:52.472Z,9.54
2019-05-19T04:26:52.659Z,9.45
2019-05-19T04:27:52.846Z,9.47
2019-05-19T04:28:53.034Z,9.47
2019-05-19T04:29:53.187Z,9.49
2019-05-19T04:30:53.355Z,9.49
2019-05-19T04:31:53.507Z,9.63
2019-05-19T04:32:54.671Z,9.64
2019-05-19T04:33:53.811Z,9.54
2019-05-19T04:34:53.975Z,9.64
2019-05-19T04:35:57.388Z,9.73
2019-05-19T04:36:55.394Z,9.77
2019-05-19T04:37:54.530Z,9.88
2019-05-19T04:38:54.697Z,9.91
2019-05-19T04:39:54.863Z,9.90
2019-05-19T04:40:55.067Z,9.91
2019-05-19T04:41:55.228Z,9.94
2019-05-19T04:42:55.416Z,10.03
2019-05-19T04:43:55.561Z,10.15
2019-05-19T04:44:55.749Z,10.23
2019-05-19T04:45:55.954Z,10.15
2019-05-19T04:46:56.070Z,10.24
2019-05-19T04:47:56.333Z,10.17
2019-05-19T04:48:56.369Z,10.13
2019-05-19T04:49:56.533Z,10.17
2019-05-19T04:50:56.696Z,10.15
2019-05-19T04:52:06.749Z,10.27
2019-05-19T04:52:59.069Z,10.34
2019-05-19T04:53:57.284Z,10.28
2019-05-19T04:54:57.455Z,10.25
2019-05-19T04:55:57.631Z,10.24
2019-05-19T04:56:57.820Z,10.17
2019-05-19T04:57:57.962Z,10.31
2019-05-19T04:58:58.148Z,10.38
2019-05-19T04:59:58.269Z,10.39
2019-05-19T05:00:58.408Z,10.42
2019-05-19T05:01:58.587Z,10.36
2019-05-19T05:02:58.750Z,10.45
2019-05-19T05:03:58.925Z,10.55
2019-05-19T05:04:59.072Z,10.61
2019-05-19T05:05:59.222Z,10.62
2019-05-19T05:06:59.407Z,10.61
2019-05-19T05:07:59.560Z,10.58
2019-05-19T05:08:59.736Z,10.71
2019-05-19T05:09:59.891Z,10.72
2019-05-19T05:11:00.026Z,10.83
2019-05-19T05:12:00.212Z,10.87
2019-05-19T05:13:00.477Z,10.92
2019-05-19T05:14:00.509Z,10.97
2019-05-19T05:15:00.670Z,10.94
2019-05-19T05:16:00.824Z,10.98
2019-05-19T05:17:00.981Z,11.00
2019-05-19T05:18:01.256Z,10.97
2019-05-19T05:19:01.330Z,11.10
2019-05-19T05:20:01.518Z,11.15
2019-05-19T05:21:02.662Z,11.08
2019-05-19T05:22:02.919Z,11.02
2019-05-19T05:23:02.065Z,10.98
2019-05-19T05:24:02.209Z,11.00
2019-05-19T05:25:02.354Z,11.01
2019-05-19T05:26:02.513Z,11.10
2019-05-19T05:27:02.730Z,11.22
2019-05-19T05:28:02.894Z,11.31
2019-05-19T05:29:03.080Z,11.27
2019-05-19T05:30:03.252Z,11.38
2019-05-19T05:31:03.388Z,11.41
2019-05-19T05:32:03.525Z,11.49
2019-05-19T05:33:03.688Z,11.49
2019-05-19T05:34:03.865Z,11.58
2019-05-19T05:35:04.023Z,11.51
2019-05-19T05:36:04.219Z,11.65
2019-05-19T05:37:04.404Z,11.63
2019-05-19T05:38:04.549Z,11.81
2019-05-19T05:39:04.737Z,11.80
2019-05-19T05:40:04.924Z,11.78
2019-05-19T05:41:05.084Z,11.77
2019-05-19T05:42:05.245Z,11.96
2019-05-19T05:43:05.410Z,12.00
2019-05-19T05:44:05.613Z,12.07
2019-05-19T05:45:05.784Z,12.14
2019-05-19T05:46:05.923Z,12.14
2019-05-19T05:47:06.061Z,12.21
2019-05-19T05:48:06.228Z,12.28
2019-05-19T05:49:06.409Z,12.33
2019-05-19T05:50:06.567Z,12.36
2019-05-19T05:51:06.747Z,12.36
2019-05-19T05:52:06.921Z,12.36
2019-05-19T05:53:07.096Z,12.44
2019-05-19T05:54:07.288Z,12.44
2019-05-19T05:55:07.435Z,12.48
2019-05-19T05:56:07.615Z,12.51
2019-05-19T05:57:07.840Z,12.51
2019-05-19T05:58:08.039Z,12.53
2019-05-19T05:59:08.245Z,12.51
2019-05-19T06:00:08.450Z,12.48
2019-05-19T06:01:08.600Z,12.54
2019-05-19T06:02:09.760Z,12.55
2019-05-19T06:03:08.918Z,12.48
2019-05-19T06:04:09.061Z,12.61
2019-05-19T06:05:09.290Z,12.68
2019-05-19T06:06:09.463Z,12.76
2019-05-19T06:07:09.621Z,12.69
2019-05-19T06:08:09.768Z,12.57
2019-05-19T06:09:09.950Z,12.65
2019-05-19T06:10:10.168Z,12.62
2019-05-19T06:11:10.352Z,12.81
2019-05-19T06:12:10.530Z,12.81
2019-05-19T06:13:10.760Z,12.87
2019-05-19T06:14:10.952Z,12.99
2019-05-19T06:15:11.160Z,13.01
2019-05-19T06:16:11.350Z,13.02
2019-05-19T06:17:11.534Z,13.02
2019-05-19T06:18:11.743Z,12.98
2019-05-19T06:19:11.949Z,12.95
2019-05-19T06:20:12.166Z,13.01
2019-05-19T06:21:12.345Z,12.99
2019-05-19T06:22:12.559Z,13.08
2019-05-19T06:23:12.730Z,13.06
2019-05-19T06:24:13.946Z,13.08
2019-05-19T06:25:13.146Z,13.26
2019-05-19T06:26:13.326Z,13.26
2019-05-19T06:27:14.521Z,13.33
2019-05-19T06:28:13.652Z,13.62
2019-05-19T06:29:13.847Z,13.65
2019-05-19T06:30:13.999Z,13.75
2019-05-19T06:31:14.201Z,13.79
2019-05-19T06:32:14.386Z,13.85
2019-05-19T06:33:14.583Z,13.80
2019-05-19T06:34:14.741Z,13.79
2019-05-19T06:35:14.919Z,14.08
2019-05-19T06:36:15.117Z,14.05
2019-05-19T06:37:15.323Z,14.23
2019-05-19T06:38:15.511Z,14.26
2019-05-19T06:39:15.689Z,14.44
2019-05-19T06:40:15.861Z,14.44
2019-05-19T06:41:16.095Z,14.56
2019-05-19T06:42:16.303Z,14.62
2019-05-19T06:43:16.483Z,14.71
2019-05-19T06:44:16.697Z,14.82
2019-05-19T06:45:16.886Z,15.05
2019-05-19T06:46:17.066Z,15.15
2019-05-19T06:47:17.268Z,14.90
2019-05-19T06:48:17.458Z,14.86
2019-05-19T06:49:17.708Z,14.67
2019-05-19T06:50:17.908Z,14.71
2019-05-19T06:51:18.126Z,14.79
2019-05-19T06:52:18.368Z,14.81
2019-05-19T06:53:18.452Z,14.61
2019-05-19T06:54:18.630Z,14.66
2019-05-19T06:55:18.829Z,14.62
2019-05-19T06:56:19.056Z,14.87
2019-05-19T06:57:19.272Z,14.96
2019-05-19T06:58:19.381Z,15.11
2019-05-19T06:59:19.494Z,15.19
2019-05-19T07:00:19.705Z,15.18
2019-05-19T07:01:19.997Z,15.05
2019-05-19T07:02:20.147Z,15.07
2019-05-19T07:03:20.308Z,15.05
2019-05-19T07:04:20.482Z,15.15
2019-05-19T07:05:20.684Z,15.08
2019-05-19T07:06:20.871Z,15.29
2019-05-19T07:07:21.065Z,15.26
2019-05-19T07:08:21.273Z,15.41
2019-05-19T07:09:21.477Z,15.60
2019-05-19T07:10:21.674Z,15.76
2019-05-19T07:11:21.857Z,15.76
2019-05-19T07:12:22.044Z,15.78
2019-05-19T07:13:22.236Z,16.05
2019-05-19T07:14:22.395Z,16.03
2019-05-19T07:15:22.597Z,16.09
2019-05-19T07:16:22.782Z,16.12
2019-05-19T07:17:22.992Z,16.24
2019-05-19T07:18:23.282Z,16.39
2019-05-19T07:19:23.369Z,16.22
2019-05-19T07:20:23.601Z,16.24
2019-05-19T07:21:23.813Z,16.17
2019-05-19T07:22:23.980Z,16.17
2019-05-19T07:23:28.180Z,16.40
2019-05-19T07:24:25.288Z,16.47
2019-05-19T07:25:24.466Z,16.24
2019-05-19T07:26:24.659Z,16.17
2019-05-19T07:27:24.898Z,16.10
2019-05-19T07:28:25.093Z,16.18
2019-05-19T07:29:25.319Z,16.16
2019-05-19T07:30:25.430Z,16.16
2019-05-19T07:31:25.639Z,16.12
2019-05-19T07:32:25.825Z,16.06
2019-05-19T07:33:26.016Z,16.10
2019-05-19T07:34:26.225Z,16.10
2019-05-19T07:35:26.414Z,16.29
2019-05-19T07:36:26.630Z,16.32
2019-05-19T07:37:26.815Z,16.37
2019-05-19T07:38:27.008Z,16.44
2019-05-19T07:39:27.231Z,16.57
2019-05-19T07:40:27.419Z,16.54
2019-05-19T07:41:27.588Z,16.50
2019-05-19T07:42:27.785Z,16.59
2019-05-19T07:43:27.956Z,16.65
2019-05-19T07:44:28.165Z,16.68
2019-05-19T07:45:28.332Z,16.74
2019-05-19T07:46:28.522Z,16.59
2019-05-19T07:47:28.682Z,16.64
2019-05-19T07:48:28.880Z,16.91
2019-05-19T07:49:29.086Z,16.84
2019-05-19T07:50:29.274Z,16.92
2019-05-19T07:51:29.470Z,17.05
2019-05-19T07:52:29.662Z,17.13
2019-05-19T07:53:42.229Z,17.10
2019-05-19T07:54:32.036Z,16.92
2019-05-19T07:55:30.186Z,16.98
2019-05-19T07:56:30.385Z,17.02
2019-05-19T07:57:30.604Z,17.13
2019-05-19T07:58:30.795Z,17.16
2019-05-19T07:59:30.962Z,17.16
2019-05-19T08:00:31.231Z,17.09
2019-05-19T08:01:31.403Z,17.07
2019-05-19T08:02:31.638Z,17.19
2019-05-19T08:03:31.855Z,17.44
2019-05-19T08:04:32.077Z,17.94
2019-05-19T08:05:32.253Z,18.37
2019-05-19T08:06:32.453Z,18.43
2019-05-19T08:07:32.652Z,18.64
2019-05-19T08:08:32.870Z,18.83
2019-05-19T08:09:32.971Z,18.83
2019-05-19T08:10:33.134Z,18.46
2019-05-19T08:11:33.316Z,18.66
2019-05-19T08:12:33.519Z,18.70
2019-05-19T08:13:33.698Z,18.96
2019-05-19T08:14:33.821Z,19.17
2019-05-19T08:15:33.991Z,19.47
2019-05-19T08:16:34.226Z,19.55
2019-05-19T08:17:34.391Z,19.70
2019-05-19T08:18:34.565Z,19.64
2019-05-19T08:19:34.711Z,19.47
2019-05-19T08:20:34.881Z,19.45
2019-05-19T08:21:35.094Z,19.60
2019-05-19T08:22:36.264Z,19.87
2019-05-19T08:23:35.432Z,19.92
2019-05-19T08:24:35.592Z,19.41
2019-05-19T08:25:35.894Z,19.00
2019-05-19T08:26:35.967Z,19.11
2019-05-19T08:27:36.202Z,19.39
2019-05-19T08:28:36.403Z,19.60
2019-05-19T08:29:36.607Z,19.72
2019-05-19T08:30:36.813Z,20.07
2019-05-19T08:31:37.011Z,20.24
2019-05-19T08:32:37.263Z,19.99
2019-05-19T08:33:37.458Z,19.75
2019-05-19T08:34:37.646Z,19.82
2019-05-19T08:35:37.853Z,20.12
2019-05-19T08:36:38.069Z,19.96
2019-05-19T08:37:38.257Z,19.79
2019-05-19T08:38:38.445Z,19.66
2019-05-19T08:39:38.642Z,19.56
2019-05-19T08:40:38.860Z,19.59
2019-05-19T08:41:39.037Z,19.59
2019-05-19T08:42:39.214Z,19.59
2019-05-19T08:43:39.425Z,19.72
2019-05-19T08:44:39.619Z,19.74
2019-05-19T08:45:39.822Z,19.78
2019-05-19T08:46:39.981Z,19.72
2019-05-19T08:47:40.160Z,19.66
2019-05-19T08:48:40.377Z,19.89
2019-05-19T08:49:40.564Z,19.93
2019-05-19T08:50:40.732Z,19.87
2019-05-19T08:51:40.899Z,20.18
2019-05-19T08:52:41.109Z,20.50
2019-05-19T08:53:41.335Z,21.28
2019-05-19T08:54:41.418Z,21.84
2019-05-19T08:55:41.625Z,22.16
2019-05-19T08:56:41.833Z,22.43
2019-05-19T08:57:42.085Z,22.38
2019-05-19T08:58:42.205Z,22.08
2019-05-19T08:59:42.450Z,22.01
2019-05-19T09:00:42.546Z,22.26
2019-05-19T09:01:42.769Z,22.37
2019-05-19T09:02:42.976Z,22.21
2019-05-19T09:03:43.198Z,22.19
2019-05-19T09:04:43.401Z,22.01
2019-05-19T09:05:43.567Z,21.81
2019-05-19T09:06:46.706Z,22.21
2019-05-19T09:07:43.964Z,22.30
2019-05-19T09:08:44.186Z,22.28
2019-05-19T09:09:44.368Z,22.18
2019-05-19T09:10:44.557Z,22.06
2019-05-19T09:11:47.847Z,21.94
2019-05-19T09:12:44.930Z,22.23
2019-05-19T09:13:45.160Z,21.94
2019-05-19T09:14:45.390Z,21.92
2019-05-19T09:15:45.549Z,22.03
2019-05-19T09:16:45.744Z,22.31
2019-05-19T09:17:45.932Z,22.40
2019-05-19T09:18:46.132Z,22.73
2019-05-19T09:19:46.365Z,22.52
2019-05-19T09:20:46.567Z,22.15
2019-05-19T09:21:46.762Z,21.78
2019-05-19T09:22:46.947Z,21.89
2019-05-19T09:23:47.235Z,21.74
2019-05-19T09:24:47.368Z,21.84
2019-05-19T09:25:47.520Z,21.78
2019-05-19T09:26:47.598Z,21.75
2019-05-19T09:27:47.797Z,21.62
2019-05-19T09:28:47.987Z,21.72
2019-05-19T09:29:48.229Z,21.60
2019-05-19T09:30:48.451Z,21.48
2019-05-19T09:31:48.633Z,21.13
2019-05-19T09:32:48.846Z,21.37
2019-05-19T09:33:49.031Z,21.50
2019-05-19T09:34:49.228Z,21.70
2019-05-19T09:35:49.405Z,22.04
2019-05-19T09:36:49.604Z,22.16
2019-05-19T09:37:49.787Z,21.81
2019-05-19T09:38:50.021Z,21.97
2019-05-19T09:39:50.264Z,22.25
2019-05-19T09:40:50.542Z,22.40
2019-05-19T09:41:50.599Z,22.15
2019-05-19T09:42:51.808Z,22.31
2019-05-19T09:43:50.975Z,22.01
2019-05-19T09:44:51.192Z,21.75
2019-05-19T09:45:51.315Z,21.97
2019-05-19T09:46:51.506Z,22.14
2019-05-19T09:47:51.705Z,22.31
2019-05-19T09:48:51.905Z,22.43
2019-05-19T09:49:52.095Z,22.55
2019-05-19T09:50:52.330Z,22.92
2019-05-19T09:51:52.578Z,22.62
2019-05-19T09:52:52.680Z,22.77
2019-05-19T09:53:52.856Z,22.81
2019-05-19T09:54:53.011Z,22.91
2019-05-19T09:55:53.189Z,22.96
2019-05-19T09:56:53.417Z,23.07
2019-05-19T09:57:53.587Z,23.04
2019-05-19T09:58:53.750Z,23.07
2019-05-19T09:59:53.896Z,23.18
2019-05-19T10:00:54.080Z,23.55
2019-05-19T10:01:54.218Z,23.79
2019-05-19T10:02:54.434Z,23.96
2019-05-19T10:03:54.603Z,23.92
2019-05-19T10:04:54.798Z,23.99
2019-05-19T10:05:54.998Z,23.34
2019-05-19T10:06:55.190Z,23.69
2019-05-19T10:07:55.391Z,23.76
2019-05-19T10:08:55.598Z,23.73
2019-05-19T10:09:55.782Z,23.45
2019-05-19T10:10:55.966Z,22.44
2019-05-19T10:11:56.156Z,22.21
2019-05-19T10:12:56.343Z,22.38
2019-05-19T10:13:56.565Z,22.23
2019-05-19T10:14:56.732Z,22.41
2019-05-19T10:15:56.907Z,22.43
2019-05-19T10:16:57.100Z,22.53
2019-05-19T10:17:57.294Z,22.91
2019-05-19T10:18:57.433Z,23.51
2019-05-19T10:19:57.583Z,23.59
2019-05-19T10:20:58.792Z,23.37
2019-05-19T10:21:57.925Z,22.96
2019-05-19T10:22:58.144Z,22.62
2019-05-19T10:23:58.324Z,22.67
2019-05-19T10:25:18.583Z,23.04
2019-05-19T10:26:00.629Z,23.37
2019-05-19T10:26:58.867Z,23.07
2019-05-19T10:27:59.058Z,23.07
2019-05-19T10:28:59.257Z,23.91
2019-05-19T10:29:59.451Z,24.62
2019-05-19T10:30:59.636Z,24.81
2019-05-19T10:31:59.812Z,24.59
2019-05-19T10:33:00.004Z,24.81
2019-05-19T10:34:00.171Z,24.78
2019-05-19T10:35:00.384Z,24.59
2019-05-19T10:36:00.597Z,24.77
2019-05-19T10:37:00.800Z,24.04
2019-05-19T10:38:01.053Z,24.13
2019-05-19T10:39:01.232Z,24.16
2019-05-19T10:40:01.527Z,24.74
2019-05-19T10:41:01.636Z,24.94
2019-05-19T10:42:02.286Z,24.88
2019-05-19T10:43:02.142Z,24.81
2019-05-19T10:44:02.265Z,24.79
2019-05-19T10:45:02.342Z,24.53
2019-05-19T10:46:02.540Z,23.49
2019-05-19T10:47:03.116Z,23.32
2019-05-19T10:48:02.920Z,23.51
2019-05-19T10:49:03.122Z,23.84
2019-05-19T10:50:04.287Z,24.22
2019-05-19T10:51:03.431Z,24.41
2019-05-19T10:52:03.648Z,24.36
2019-05-19T10:53:03.834Z,24.38
2019-05-19T10:54:04.019Z,24.61
2019-05-19T10:55:04.224Z,24.36
2019-05-19T10:56:04.449Z,24.16
2019-05-19T10:57:04.527Z,24.06
2019-05-19T10:58:04.722Z,23.88
2019-05-19T10:59:04.976Z,23.99
2019-05-19T11:00:05.045Z,23.95
2019-05-19T11:01:05.265Z,24.26
2019-05-19T11:02:05.453Z,24.69
2019-05-19T11:03:05.645Z,25.29
2019-05-19T11:04:05.872Z,25.49
2019-05-19T11:05:06.026Z,25.93
2019-05-19T11:06:06.195Z,26.08
2019-05-19T11:07:06.414Z,26.41
2019-05-19T11:08:06.617Z,26.78
2019-05-19T11:09:06.838Z,26.88
2019-05-19T11:10:07.027Z,27.13
2019-05-19T11:11:07.226Z,26.98
2019-05-19T11:12:07.442Z,26.42
2019-05-19T11:13:07.624Z,26.44
2019-05-19T11:14:07.854Z,26.53
2019-05-19T11:15:08.011Z,27.00
2019-05-19T11:16:08.233Z,27.01
2019-05-19T11:17:08.395Z,26.63
2019-05-19T11:18:08.539Z,25.95
2019-05-19T11:19:08.758Z,25.48
2019-05-19T11:20:08.895Z,25.14
2019-05-19T11:21:09.116Z,24.86
2019-05-19T11:22:09.266Z,25.16
2019-05-19T11:23:09.425Z,25.36
2019-05-19T11:24:09.570Z,25.12
2019-05-19T11:25:09.733Z,24.86
2019-05-19T11:26:09.949Z,25.86
2019-05-19T11:27:10.251Z,26.56
2019-05-19T11:28:11.297Z,26.76
2019-05-19T11:29:10.448Z,26.70
2019-05-19T11:30:10.654Z,26.41
2019-05-19T11:31:10.889Z,25.95
2019-05-19T11:32:10.974Z,25.83
2019-05-19T11:33:11.270Z,25.80
2019-05-19T11:34:11.335Z,25.63
2019-05-19T11:35:11.507Z,25.92
2019-05-19T11:36:11.726Z,25.89
2019-05-19T11:37:11.891Z,25.89
2019-05-19T11:38:12.086Z,25.70
2019-05-19T11:39:12.249Z,25.40
2019-05-19T11:40:12.946Z,24.78
2019-05-19T11:41:12.636Z,24.53
2019-05-19T11:42:12.862Z,24.24
2019-05-19T11:43:13.035Z,24.37
2019-05-19T11:44:13.224Z,24.29
2019-05-19T11:45:13.372Z,24.06
2019-05-19T11:46:13.531Z,23.86
2019-05-19T11:47:14.003Z,23.81
2019-05-19T11:48:13.896Z,23.84
2019-05-19T11:49:14.060Z,23.99
2019-05-19T11:50:14.229Z,23.95
2019-05-19T11:51:14.432Z,23.73
2019-05-19T11:52:14.628Z,23.79
2019-05-19T11:53:16.467Z,23.77
2019-05-19T11:54:14.978Z,23.79
2019-05-19T11:55:15.163Z,23.88
2019-05-19T11:56:15.424Z,23.79
2019-05-19T11:57:15.528Z,23.86
2019-05-19T11:58:15.738Z,24.03
2019-05-19T11:59:15.916Z,24.03
2019-05-19T12:00:16.086Z,23.94
2019-05-19T12:01:16.246Z,23.74
2019-05-19T12:02:16.415Z,23.81
2019-05-19T12:03:16.659Z,23.62
2019-05-19T12:04:16.831Z,23.74
2019-05-19T12:05:17.007Z,23.55
2019-05-19T12:06:17.218Z,23.51
2019-05-19T12:07:17.411Z,23.47
2019-05-19T12:08:17.606Z,23.32
2019-05-19T12:09:18.804Z,23.16
2019-05-19T12:10:17.981Z,23.14
2019-05-19T12:11:18.177Z,23.01
2019-05-19T12:12:18.399Z,22.77
2019-05-19T12:13:18.677Z,22.84
2019-05-19T12:14:18.773Z,22.58
2019-05-19T12:15:18.960Z,22.49
2019-05-19T12:16:19.200Z,22.41
2019-05-19T12:17:19.381Z,22.52
2019-05-19T12:18:19.593Z,22.37
2019-05-19T12:19:19.809Z,22.18
2019-05-19T12:20:20.022Z,22.07
2019-05-19T12:21:20.198Z,21.80
2019-05-19T12:22:20.339Z,21.69
2019-05-19T12:23:20.536Z,21.56
2019-05-19T12:24:20.754Z,21.50
2019-05-19T12:25:20.969Z,21.38
2019-05-19T12:26:23.641Z,21.13
2019-05-19T12:27:22.356Z,21.01
2019-05-19T12:28:21.495Z,20.86
2019-05-19T12:29:21.690Z,20.78
2019-05-19T12:30:21.917Z,20.80
2019-05-19T12:31:22.106Z,20.68
2019-05-19T12:32:22.292Z,20.53
2019-05-19T12:33:22.523Z,20.44
2019-05-19T12:34:22.687Z,20.42
2019-05-19T12:35:22.885Z,20.32
2019-05-19T12:36:23.089Z,20.22
2019-05-19T12:37:23.242Z,20.03
2019-05-19T12:38:23.458Z,19.90
2019-05-19T12:39:23.652Z,19.87
2019-05-19T12:40:23.826Z,19.75
2019-05-19T12:41:24.023Z,19.63
2019-05-19T12:42:24.206Z,19.64
2019-05-19T12:43:24.377Z,19.57
2019-05-19T12:44:24.566Z,19.30
2019-05-19T12:45:24.747Z,19.29
2019-05-19T12:46:24.999Z,19.20
2019-05-19T12:47:25.208Z,19.07
2019-05-19T12:48:26.070Z,18.91
2019-05-19T12:49:25.593Z,18.94
2019-05-19T12:50:25.781Z,18.86
2019-05-19T12:51:26.854Z,18.61
2019-05-19T12:52:27.383Z,18.61
2019-05-19T12:53:26.432Z,18.57
2019-05-19T12:54:26.617Z,18.43
2019-05-19T12:55:26.839Z,18.45
2019-05-19T12:56:39.106Z,18.34
2019-05-19T12:57:29.177Z,18.24
2019-05-19T12:58:27.333Z,18.30
2019-05-19T12:59:27.639Z,18.23
2019-05-19T13:00:27.707Z,18.11